sensor_id;sensor_type;location;lat;lon;timestamp;P1;durP1;ratioP1;P2;durP2;ratioP2
51949;SDS011;37974;53.218;6.640;2023-08-24T00:00:38;1535.53;;;999.90;;
51949;SDS011;37974;53.218;6.640;2023-08-24T00:03:05;1472.50;;;999.90;;
51949;SDS011;37974;53.218;6.640;2023-08-24T00:05:35;1386.55;;;999.90;;
51949;SDS011;37974;53.218;6.640;2023-08-24T00:08:05;1481.75;;;999.90;;
51949;SDS011;37974;53.218;6.640;2023-08-24T00:10:35;1456.47;;;999.90;;
51949;SDS011;37974;53.218;6.640;2023-08-24T00:13:01;1464.45;;;999.90;;
51949;SDS011;37974;53.218;6.640;2023-08-24T00:15:27;1591.80;;;999.90;;
51949;SDS011;37974;53.218;6.640;2023-08-24T00:17:53;1611.10;;;999.90;;
51949;SDS011;37974;53.218;6.640;2023-08-24T00:20:19;1633.93;;;999.90;;
51949;SDS011;37974;53.218;6.640;2023-08-24T00:22:45;1466.75;;;999.90;;
51949;SDS011;37974;53.218;6.640;2023-08-24T00:25:11;1500.93;;;999.90;;
51949;SDS011;37974;53.218;6.640;2023-08-24T00:27:38;1436.32;;;999.90;;
51949;SDS011;37974;53.218;6.640;2023-08-24T00:30:05;1631.57;;;999.90;;
51949;SDS011;37974;53.218;6.640;2023-08-24T00:32:32;1503.03;;;999.90;;
51949;SDS011;37974;53.218;6.640;2023-08-24T00:35:00;1538.55;;;999.90;;
51949;SDS011;37974;53.218;6.640;2023-08-24T00:37:28;1501.80;;;999.90;;
51949;SDS011;37974;53.218;6.640;2023-08-24T00:39:54;1635.78;;;999.90;;
51949;SDS011;37974;53.218;6.640;2023-08-24T00:42:20;1624.25;;;999.90;;
51949;SDS011;37974;53.218;6.640;2023-08-24T00:44:47;1598.03;;;999.90;;
51949;SDS011;37974;53.218;6.640;2023-08-24T00:47:14;1524.25;;;999.90;;
51949;SDS011;37974;53.218;6.640;2023-08-24T00:49:40;1616.20;;;999.90;;
51949;SDS011;37974;53.218;6.640;2023-08-24T00:52:06;1653.63;;;999.90;;
51949;SDS011;37974;53.218;6.640;2023-08-24T00:54:32;1676.90;;;999.90;;
51949;SDS011;37974;53.218;6.640;2023-08-24T00:56:59;1675.18;;;999.90;;
51949;SDS011;37974;53.218;6.640;2023-08-24T00:59:25;1564.82;;;999.90;;
51949;SDS011;37974;53.218;6.640;2023-08-24T01:01:51;1577.57;;;999.90;;
51949;SDS011;37974;53.218;6.640;2023-08-24T01:04:17;1698.75;;;999.90;;
51949;SDS011;37974;53.218;6.640;2023-08-24T01:06:43;1700.57;;;999.90;;
51949;SDS011;37974;53.218;6.640;2023-08-24T01:09:09;1634.95;;;999.90;;
51949;SDS011;37974;53.218;6.640;2023-08-24T01:11:44;1615.22;;;999.90;;
51949;SDS011;37974;53.218;6.640;2023-08-24T01:14:17;1675.25;;;999.90;;
51949;SDS011;37974;53.218;6.640;2023-08-24T01:16:52;1589.63;;;999.90;;
51949;SDS011;37974;53.218;6.640;2023-08-24T01:21:51;1594.57;;;999.90;;
51949;SDS011;37974;53.218;6.640;2023-08-24T01:24:30;1567.60;;;999.90;;
51949;SDS011;37974;53.218;6.640;2023-08-24T01:27:10;1581.43;;;999.90;;
51949;SDS011;37974;53.218;6.640;2023-08-24T01:29:36;1513.55;;;999.90;;
51949;SDS011;37974;53.218;6.640;2023-08-24T01:32:05;1500.85;;;999.90;;
51949;SDS011;37974;53.218;6.640;2023-08-24T01:34:36;1559.38;;;999.90;;
51949;SDS011;37974;53.218;6.640;2023-08-24T01:37:03;1548.75;;;999.90;;
51949;SDS011;37974;53.218;6.640;2023-08-24T01:39:34;1488.25;;;999.90;;
51949;SDS011;37974;53.218;6.640;2023-08-24T01:42:07;1416.97;;;999.90;;
51949;SDS011;37974;53.218;6.640;2023-08-24T01:47:07;1491.68;;;999.90;;
51949;SDS011;37974;53.218;6.640;2023-08-24T01:49:36;1461.93;;;999.90;;
51949;SDS011;37974;53.218;6.640;2023-08-24T01:52:04;1401.70;;;999.90;;
51949;SDS011;37974;53.218;6.640;2023-08-24T01:54:30;1374.28;;;999.90;;
51949;SDS011;37974;53.218;6.640;2023-08-24T01:56:56;1393.20;;;999.90;;
51949;SDS011;37974;53.218;6.640;2023-08-24T01:59:22;1330.85;;;999.90;;
51949;SDS011;37974;53.218;6.640;2023-08-24T02:01:48;1319.68;;;999.90;;
51949;SDS011;37974;53.218;6.640;2023-08-24T02:04:13;1197.18;;;999.90;;
51949;SDS011;37974;53.218;6.640;2023-08-24T02:06:39;1237.28;;;999.90;;
51949;SDS011;37974;53.218;6.640;2023-08-24T02:09:05;1297.22;;;999.90;;
51949;SDS011;37974;53.218;6.640;2023-08-24T02:11:31;1276.50;;;999.90;;
51949;SDS011;37974;53.218;6.640;2023-08-24T02:13:56;1123.95;;;987.03;;
51949;SDS011;37974;53.218;6.640;2023-08-24T02:16:22;1086.80;;;969.95;;
51949;SDS011;37974;53.218;6.640;2023-08-24T02:18:48;1057.65;;;945.50;;
51949;SDS011;37974;53.218;6.640;2023-08-24T02:21:13;1087.68;;;968.78;;
51949;SDS011;37974;53.218;6.640;2023-08-24T02:23:41;1103.53;;;978.67;;
51949;SDS011;37974;53.218;6.640;2023-08-24T02:26:07;1118.00;;;986.45;;
51949;SDS011;37974;53.218;6.640;2023-08-24T02:28:33;1127.63;;;987.67;;
51949;SDS011;37974;53.218;6.640;2023-08-24T02:31:00;1045.63;;;938.28;;
51949;SDS011;37974;53.218;6.640;2023-08-24T02:33:26;1107.82;;;984.20;;
51949;SDS011;37974;53.218;6.640;2023-08-24T02:35:52;1117.55;;;981.50;;
51949;SDS011;37974;53.218;6.640;2023-08-24T02:38:17;1091.38;;;969.38;;
51949;SDS011;37974;53.218;6.640;2023-08-24T02:40:43;1083.88;;;965.53;;
51949;SDS011;37974;53.218;6.640;2023-08-24T02:43:09;1108.47;;;987.67;;
51949;SDS011;37974;53.218;6.640;2023-08-24T02:45:35;1095.50;;;975.63;;
51949;SDS011;37974;53.218;6.640;2023-08-24T02:48:00;1075.88;;;960.42;;
51949;SDS011;37974;53.218;6.640;2023-08-24T02:50:26;1088.57;;;970.97;;
51949;SDS011;37974;53.218;6.640;2023-08-24T02:52:52;1160.43;;;998.60;;
51949;SDS011;37974;53.218;6.640;2023-08-24T02:55:17;1099.60;;;980.75;;
51949;SDS011;37974;53.218;6.640;2023-08-24T02:57:43;1072.88;;;959.90;;
51949;SDS011;37974;53.218;6.640;2023-08-24T03:00:09;1115.55;;;992.35;;
51949;SDS011;37974;53.218;6.640;2023-08-24T03:02:35;1066.85;;;956.22;;
51949;SDS011;37974;53.218;6.640;2023-08-24T03:05:01;1048.05;;;942.15;;
51949;SDS011;37974;53.218;6.640;2023-08-24T03:07:27;1078.22;;;963.42;;
51949;SDS011;37974;53.218;6.640;2023-08-24T03:09:53;1038.65;;;933.30;;
51949;SDS011;37974;53.218;6.640;2023-08-24T03:12:19;1010.95;;;911.70;;
51949;SDS011;37974;53.218;6.640;2023-08-24T03:14:45;1047.20;;;938.38;;
51949;SDS011;37974;53.218;6.640;2023-08-24T03:17:11;992.05;;;896.65;;
51949;SDS011;37974;53.218;6.640;2023-08-24T03:19:36;1037.30;;;933.80;;
51949;SDS011;37974;53.218;6.640;2023-08-24T03:22:02;998.22;;;901.92;;
51949;SDS011;37974;53.218;6.640;2023-08-24T03:24:28;1013.10;;;913.85;;
51949;SDS011;37974;53.218;6.640;2023-08-24T03:26:53;995.45;;;901.53;;
51949;SDS011;37974;53.218;6.640;2023-08-24T03:29:20;959.65;;;869.60;;
51949;SDS011;37974;53.218;6.640;2023-08-24T03:31:46;922.15;;;839.90;;
51949;SDS011;37974;53.218;6.640;2023-08-24T03:34:12;924.78;;;841.47;;
51949;SDS011;37974;53.218;6.640;2023-08-24T03:36:38;916.40;;;833.28;;
51949;SDS011;37974;53.218;6.640;2023-08-24T03:39:03;902.00;;;821.83;;
51949;SDS011;37974;53.218;6.640;2023-08-24T03:41:29;895.58;;;817.28;;
51949;SDS011;37974;53.218;6.640;2023-08-24T03:43:55;848.28;;;775.97;;
51949;SDS011;37974;53.218;6.640;2023-08-24T03:46:20;905.65;;;824.97;;
51949;SDS011;37974;53.218;6.640;2023-08-24T03:48:46;926.72;;;843.28;;
51949;SDS011;37974;53.218;6.640;2023-08-24T03:51:12;841.65;;;771.13;;
51949;SDS011;37974;53.218;6.640;2023-08-24T03:53:37;884.72;;;808.08;;
51949;SDS011;37974;53.218;6.640;2023-08-24T03:56:03;903.78;;;825.30;;
51949;SDS011;37974;53.218;6.640;2023-08-24T03:58:29;880.97;;;805.00;;
51949;SDS011;37974;53.218;6.640;2023-08-24T04:00:55;897.75;;;817.80;;
51949;SDS011;37974;53.218;6.640;2023-08-24T04:03:20;706.70;;;652.75;;
51949;SDS011;37974;53.218;6.640;2023-08-24T04:05:46;707.50;;;652.83;;
51949;SDS011;37974;53.218;6.640;2023-08-24T04:08:12;751.17;;;692.47;;
51949;SDS011;37974;53.218;6.640;2023-08-24T04:10:38;626.95;;;580.55;;
51949;SDS011;37974;53.218;6.640;2023-08-24T04:13:03;649.28;;;600.58;;
51949;SDS011;37974;53.218;6.640;2023-08-24T04:15:29;655.75;;;606.05;;
51949;SDS011;37974;53.218;6.640;2023-08-24T04:17:55;647.60;;;599.05;;
51949;SDS011;37974;53.218;6.640;2023-08-24T04:20:22;590.67;;;547.88;;
51949;SDS011;37974;53.218;6.640;2023-08-24T04:22:47;586.17;;;543.78;;
51949;SDS011;37974;53.218;6.640;2023-08-24T04:25:13;568.47;;;527.22;;
51949;SDS011;37974;53.218;6.640;2023-08-24T04:27:39;590.08;;;547.65;;
51949;SDS011;37974;53.218;6.640;2023-08-24T04:30:04;577.95;;;536.17;;
51949;SDS011;37974;53.218;6.640;2023-08-24T04:32:31;557.95;;;518.30;;
51949;SDS011;37974;53.218;6.640;2023-08-24T04:34:57;552.90;;;513.30;;
51949;SDS011;37974;53.218;6.640;2023-08-24T04:37:23;576.30;;;534.38;;
51949;SDS011;37974;53.218;6.640;2023-08-24T04:39:49;579.55;;;536.70;;
51949;SDS011;37974;53.218;6.640;2023-08-24T04:42:14;586.88;;;543.65;;
51949;SDS011;37974;53.218;6.640;2023-08-24T04:44:40;608.35;;;562.67;;
51949;SDS011;37974;53.218;6.640;2023-08-24T04:47:06;546.17;;;507.05;;
51949;SDS011;37974;53.218;6.640;2023-08-24T04:49:32;588.33;;;544.80;;
51949;SDS011;37974;53.218;6.640;2023-08-24T04:51:58;618.67;;;571.55;;
51949;SDS011;37974;53.218;6.640;2023-08-24T04:54:23;601.40;;;555.72;;
51949;SDS011;37974;53.218;6.640;2023-08-24T04:56:49;588.20;;;544.75;;
51949;SDS011;37974;53.218;6.640;2023-08-24T04:59:15;615.35;;;568.47;;
51949;SDS011;37974;53.218;6.640;2023-08-24T05:01:40;560.95;;;519.30;;
51949;SDS011;37974;53.218;6.640;2023-08-24T05:04:06;626.17;;;577.80;;
51949;SDS011;37974;53.218;6.640;2023-08-24T05:06:32;603.83;;;557.65;;
51949;SDS011;37974;53.218;6.640;2023-08-24T05:08:58;665.83;;;613.60;;
51949;SDS011;37974;53.218;6.640;2023-08-24T05:11:25;665.28;;;613.40;;
51949;SDS011;37974;53.218;6.640;2023-08-24T05:13:54;683.17;;;629.40;;
51949;SDS011;37974;53.218;6.640;2023-08-24T05:16:20;755.42;;;695.15;;
51949;SDS011;37974;53.218;6.640;2023-08-24T05:18:46;726.83;;;669.88;;
51949;SDS011;37974;53.218;6.640;2023-08-24T05:21:12;764.17;;;702.92;;
51949;SDS011;37974;53.218;6.640;2023-08-24T05:23:38;752.92;;;692.17;;
51949;SDS011;37974;53.218;6.640;2023-08-24T05:26:03;783.88;;;719.78;;
51949;SDS011;37974;53.218;6.640;2023-08-24T05:28:30;741.28;;;682.15;;
51949;SDS011;37974;53.218;6.640;2023-08-24T05:30:56;628.90;;;580.00;;
51949;SDS011;37974;53.218;6.640;2023-08-24T05:33:23;766.00;;;703.13;;
51949;SDS011;37974;53.218;6.640;2023-08-24T05:35:49;718.00;;;660.55;;
51949;SDS011;37974;53.218;6.640;2023-08-24T05:38:16;803.97;;;738.22;;
51949;SDS011;37974;53.218;6.640;2023-08-24T05:40:43;714.67;;;658.50;;
51949;SDS011;37974;53.218;6.640;2023-08-24T05:43:11;792.75;;;728.17;;
51949;SDS011;37974;53.218;6.640;2023-08-24T05:45:37;796.28;;;731.50;;
51949;SDS011;37974;53.218;6.640;2023-08-24T05:48:05;815.17;;;748.05;;
51949;SDS011;37974;53.218;6.640;2023-08-24T05:50:31;855.00;;;782.55;;
51949;SDS011;37974;53.218;6.640;2023-08-24T05:52:57;815.80;;;746.97;;
51949;SDS011;37974;53.218;6.640;2023-08-24T05:55:23;822.22;;;754.20;;
51949;SDS011;37974;53.218;6.640;2023-08-24T05:57:48;857.40;;;784.83;;
51949;SDS011;37974;53.218;6.640;2023-08-24T06:00:14;874.90;;;799.38;;
51949;SDS011;37974;53.218;6.640;2023-08-24T06:02:40;879.25;;;802.92;;
51949;SDS011;37974;53.218;6.640;2023-08-24T06:05:06;830.75;;;761.22;;
51949;SDS011;37974;53.218;6.640;2023-08-24T06:07:33;904.13;;;825.30;;
51949;SDS011;37974;53.218;6.640;2023-08-24T06:09:58;922.28;;;840.47;;
51949;SDS011;37974;53.218;6.640;2023-08-24T06:12:24;929.03;;;845.58;;
51949;SDS011;37974;53.218;6.640;2023-08-24T06:14:50;957.13;;;868.47;;
51949;SDS011;37974;53.218;6.640;2023-08-24T06:17:16;903.08;;;824.45;;
51949;SDS011;37974;53.218;6.640;2023-08-24T06:19:42;995.28;;;900.05;;
51949;SDS011;37974;53.218;6.640;2023-08-24T06:22:08;935.60;;;850.60;;
51949;SDS011;37974;53.218;6.640;2023-08-24T06:24:34;920.63;;;838.13;;
51949;SDS011;37974;53.218;6.640;2023-08-24T06:27:00;930.45;;;847.13;;
51949;SDS011;37974;53.218;6.640;2023-08-24T06:29:30;922.65;;;840.83;;
51949;SDS011;37974;53.218;6.640;2023-08-24T06:31:55;941.10;;;855.58;;
51949;SDS011;37974;53.218;6.640;2023-08-24T06:34:21;991.22;;;896.45;;
51949;SDS011;37974;53.218;6.640;2023-08-24T06:36:47;1019.97;;;919.55;;
51949;SDS011;37974;53.218;6.640;2023-08-24T06:39:13;977.88;;;885.67;;
51949;SDS011;37974;53.218;6.640;2023-08-24T06:41:39;1008.95;;;910.45;;
51949;SDS011;37974;53.218;6.640;2023-08-24T06:44:04;989.75;;;896.80;;
51949;SDS011;37974;53.218;6.640;2023-08-24T06:46:30;950.33;;;864.08;;
51949;SDS011;37974;53.218;6.640;2023-08-24T06:48:57;965.88;;;878.25;;
51949;SDS011;37974;53.218;6.640;2023-08-24T06:51:23;981.70;;;890.58;;
51949;SDS011;37974;53.218;6.640;2023-08-24T06:53:49;901.83;;;824.22;;
51949;SDS011;37974;53.218;6.640;2023-08-24T06:56:15;940.92;;;856.60;;
51949;SDS011;37974;53.218;6.640;2023-08-24T06:58:42;929.90;;;847.60;;
51949;SDS011;37974;53.218;6.640;2023-08-24T07:01:08;886.05;;;810.38;;
51949;SDS011;37974;53.218;6.640;2023-08-24T07:03:34;893.25;;;815.15;;
51949;SDS011;37974;53.218;6.640;2023-08-24T07:06:01;889.70;;;811.08;;
51949;SDS011;37974;53.218;6.640;2023-08-24T07:08:27;856.17;;;782.80;;
51949;SDS011;37974;53.218;6.640;2023-08-24T07:10:53;834.33;;;764.15;;
51949;SDS011;37974;53.218;6.640;2023-08-24T07:13:24;876.88;;;799.65;;
51949;SDS011;37974;53.218;6.640;2023-08-24T07:16:06;832.05;;;762.10;;
51949;SDS011;37974;53.218;6.640;2023-08-24T07:18:32;807.70;;;741.55;;
51949;SDS011;37974;53.218;6.640;2023-08-24T07:20:58;813.30;;;745.80;;
51949;SDS011;37974;53.218;6.640;2023-08-24T07:23:24;772.53;;;708.55;;
51949;SDS011;37974;53.218;6.640;2023-08-24T07:26:22;815.13;;;746.22;;
51949;SDS011;37974;53.218;6.640;2023-08-24T07:28:47;834.40;;;763.15;;
51949;SDS011;37974;53.218;6.640;2023-08-24T07:31:13;758.10;;;695.53;;
51949;SDS011;37974;53.218;6.640;2023-08-24T07:33:40;777.33;;;712.75;;
51949;SDS011;37974;53.218;6.640;2023-08-24T07:36:12;846.92;;;774.55;;
51949;SDS011;37974;53.218;6.640;2023-08-24T07:38:41;820.70;;;751.08;;
51949;SDS011;37974;53.218;6.640;2023-08-24T07:41:06;705.72;;;647.63;;
51949;SDS011;37974;53.218;6.640;2023-08-24T07:43:34;843.60;;;770.45;;
51949;SDS011;37974;53.218;6.640;2023-08-24T07:46:00;847.42;;;774.60;;
51949;SDS011;37974;53.218;6.640;2023-08-24T07:48:25;722.42;;;663.50;;
51949;SDS011;37974;53.218;6.640;2023-08-24T07:50:53;735.72;;;674.65;;
51949;SDS011;37974;53.218;6.640;2023-08-24T07:53:18;792.92;;;726.55;;
51949;SDS011;37974;53.218;6.640;2023-08-24T07:55:44;779.53;;;715.67;;
51949;SDS011;37974;53.218;6.640;2023-08-24T07:58:11;751.92;;;690.40;;
51949;SDS011;37974;53.218;6.640;2023-08-24T08:00:36;926.90;;;844.38;;
51949;SDS011;37974;53.218;6.640;2023-08-24T08:03:03;930.08;;;846.08;;
51949;SDS011;37974;53.218;6.640;2023-08-24T08:05:29;947.22;;;859.53;;
51949;SDS011;37974;53.218;6.640;2023-08-24T08:07:56;977.20;;;885.47;;
51949;SDS011;37974;53.218;6.640;2023-08-24T08:10:22;967.88;;;877.85;;
51949;SDS011;37974;53.218;6.640;2023-08-24T08:12:48;943.47;;;858.30;;
51949;SDS011;37974;53.218;6.640;2023-08-24T08:15:14;985.53;;;891.78;;
51949;SDS011;37974;53.218;6.640;2023-08-24T08:17:39;987.10;;;893.42;;
51949;SDS011;37974;53.218;6.640;2023-08-24T08:20:07;998.05;;;903.65;;
51949;SDS011;37974;53.218;6.640;2023-08-24T08:22:33;985.40;;;893.78;;
51949;SDS011;37974;53.218;6.640;2023-08-24T08:25:03;950.58;;;863.38;;
51949;SDS011;37974;53.218;6.640;2023-08-24T08:27:30;971.53;;;881.22;;
51949;SDS011;37974;53.218;6.640;2023-08-24T08:29:56;931.85;;;849.08;;
51949;SDS011;37974;53.218;6.640;2023-08-24T08:32:21;924.55;;;843.03;;
51949;SDS011;37974;53.218;6.640;2023-08-24T08:34:52;834.80;;;765.78;;
51949;SDS011;37974;53.218;6.640;2023-08-24T08:37:26;858.20;;;787.15;;
51949;SDS011;37974;53.218;6.640;2023-08-24T08:39:52;937.72;;;854.50;;
51949;SDS011;37974;53.218;6.640;2023-08-24T08:42:18;839.63;;;770.92;;
51949;SDS011;37974;53.218;6.640;2023-08-24T08:44:45;757.40;;;697.55;;
51949;SDS011;37974;53.218;6.640;2023-08-24T08:47:12;731.58;;;673.92;;
51949;SDS011;37974;53.218;6.640;2023-08-24T08:49:39;754.95;;;695.67;;
51949;SDS011;37974;53.218;6.640;2023-08-24T08:52:06;755.08;;;695.60;;
51949;SDS011;37974;53.218;6.640;2023-08-24T08:54:32;684.00;;;631.15;;
51949;SDS011;37974;53.218;6.640;2023-08-24T08:56:58;717.65;;;661.65;;
51949;SDS011;37974;53.218;6.640;2023-08-24T08:59:25;699.95;;;645.55;;
51949;SDS011;37974;53.218;6.640;2023-08-24T09:02:05;687.10;;;634.15;;
51949;SDS011;37974;53.218;6.640;2023-08-24T09:04:33;686.05;;;633.47;;
51949;SDS011;37974;53.218;6.640;2023-08-24T09:06:59;642.50;;;593.55;;
51949;SDS011;37974;53.218;6.640;2023-08-24T09:09:33;620.53;;;573.20;;
51949;SDS011;37974;53.218;6.640;2023-08-24T09:11:59;577.08;;;532.97;;
51949;SDS011;37974;53.218;6.640;2023-08-24T09:14:25;673.70;;;621.88;;
51949;SDS011;37974;53.218;6.640;2023-08-24T09:16:51;684.72;;;631.40;;
51949;SDS011;37974;53.218;6.640;2023-08-24T09:19:17;643.45;;;594.40;;
51949;SDS011;37974;53.218;6.640;2023-08-24T09:21:42;677.38;;;625.33;;
51949;SDS011;37974;53.218;6.640;2023-08-24T09:24:08;654.85;;;604.63;;
51949;SDS011;37974;53.218;6.640;2023-08-24T09:26:37;704.97;;;650.05;;
51949;SDS011;37974;53.218;6.640;2023-08-24T09:29:11;645.40;;;596.13;;
51949;SDS011;37974;53.218;6.640;2023-08-24T09:31:39;641.22;;;591.25;;
51949;SDS011;37974;53.218;6.640;2023-08-24T09:34:05;652.38;;;602.10;;
51949;SDS011;37974;53.218;6.640;2023-08-24T09:36:34;650.63;;;600.15;;
51949;SDS011;37974;53.218;6.640;2023-08-24T09:39:01;649.22;;;598.63;;
51949;SDS011;37974;53.218;6.640;2023-08-24T09:41:43;690.35;;;636.83;;
51949;SDS011;37974;53.218;6.640;2023-08-24T09:44:09;577.17;;;532.30;;
51949;SDS011;37974;53.218;6.640;2023-08-24T09:46:37;567.60;;;524.28;;
51949;SDS011;37974;53.218;6.640;2023-08-24T09:49:07;492.90;;;456.02;;
51949;SDS011;37974;53.218;6.640;2023-08-24T09:51:34;510.98;;;473.25;;
51949;SDS011;37974;53.218;6.640;2023-08-24T09:54:04;566.10;;;523.17;;
51949;SDS011;37974;53.218;6.640;2023-08-24T09:56:34;476.70;;;441.50;;
51949;SDS011;37974;53.218;6.640;2023-08-24T10:01:43;656.53;;;602.90;;
51949;SDS011;37974;53.218;6.640;2023-08-24T10:04:09;693.88;;;638.15;;
51949;SDS011;37974;53.218;6.640;2023-08-24T10:06:38;695.50;;;639.85;;
51949;SDS011;37974;53.218;6.640;2023-08-24T10:09:06;624.30;;;574.42;;
51949;SDS011;37974;53.218;6.640;2023-08-24T10:11:47;655.63;;;603.00;;
51949;SDS011;37974;53.218;6.640;2023-08-24T10:14:19;621.25;;;572.60;;
51949;SDS011;37974;53.218;6.640;2023-08-24T10:16:51;676.10;;;623.28;;
51949;SDS011;37974;53.218;6.640;2023-08-24T10:19:17;632.00;;;581.50;;
51949;SDS011;37974;53.218;6.640;2023-08-24T10:21:45;632.80;;;581.47;;
51949;SDS011;37974;53.218;6.640;2023-08-24T10:24:11;621.15;;;572.58;;
51949;SDS011;37974;53.218;6.640;2023-08-24T10:26:39;540.88;;;500.45;;
51949;SDS011;37974;53.218;6.640;2023-08-24T10:29:06;580.25;;;535.83;;
51949;SDS011;37974;53.218;6.640;2023-08-24T10:31:32;660.72;;;607.72;;
51949;SDS011;37974;53.218;6.640;2023-08-24T10:33:59;625.15;;;577.38;;
51949;SDS011;37974;53.218;6.640;2023-08-24T10:36:27;601.78;;;555.92;;
51949;SDS011;37974;53.218;6.640;2023-08-24T10:38:55;687.78;;;635.10;;
51949;SDS011;37974;53.218;6.640;2023-08-24T10:41:27;662.70;;;611.67;;
51949;SDS011;37974;53.218;6.640;2023-08-24T10:44:03;646.80;;;597.85;;
51949;SDS011;37974;53.218;6.640;2023-08-24T10:46:35;679.10;;;626.58;;
51949;SDS011;37974;53.218;6.640;2023-08-24T10:49:03;616.50;;;568.90;;
51949;SDS011;37974;53.218;6.640;2023-08-24T10:51:30;687.78;;;634.97;;
51949;SDS011;37974;53.218;6.640;2023-08-24T10:53:57;708.33;;;653.97;;
51949;SDS011;37974;53.218;6.640;2023-08-24T10:59:17;672.88;;;618.65;;
51949;SDS011;37974;53.218;6.640;2023-08-24T11:04:17;674.27;;;620.97;;
51949;SDS011;37974;53.218;6.640;2023-08-24T11:06:56;762.50;;;701.58;;
51949;SDS011;37974;53.218;6.640;2023-08-24T11:09:24;678.20;;;625.50;;
51949;SDS011;37974;53.218;6.640;2023-08-24T11:12:12;812.28;;;744.85;;
51949;SDS011;37974;53.218;6.640;2023-08-24T11:14:57;746.35;;;686.03;;
51949;SDS011;37974;53.218;6.640;2023-08-24T11:17:24;764.08;;;702.17;;
51949;SDS011;37974;53.218;6.640;2023-08-24T11:19:54;722.90;;;664.47;;
51949;SDS011;37974;53.218;6.640;2023-08-24T11:22:20;759.00;;;697.53;;
51949;SDS011;37974;53.218;6.640;2023-08-24T11:25:04;798.00;;;731.22;;
51949;SDS011;37974;53.218;6.640;2023-08-24T11:27:30;812.83;;;744.72;;
51949;SDS011;37974;53.218;6.640;2023-08-24T11:29:59;798.10;;;730.17;;
51949;SDS011;37974;53.218;6.640;2023-08-24T11:32:29;788.75;;;724.00;;
51949;SDS011;37974;53.218;6.640;2023-08-24T11:34:55;864.60;;;791.30;;
51949;SDS011;37974;53.218;6.640;2023-08-24T11:37:21;815.17;;;748.08;;
51949;SDS011;37974;53.218;6.640;2023-08-24T11:39:49;763.28;;;701.70;;
51949;SDS011;37974;53.218;6.640;2023-08-24T11:42:31;828.88;;;759.15;;
51949;SDS011;37974;53.218;6.640;2023-08-24T11:45:01;752.97;;;692.25;;
51949;SDS011;37974;53.218;6.640;2023-08-24T11:47:27;821.35;;;752.90;;
51949;SDS011;37974;53.218;6.640;2023-08-24T11:49:56;771.97;;;709.65;;
51949;SDS011;37974;53.218;6.640;2023-08-24T11:52:22;732.47;;;673.10;;
51949;SDS011;37974;53.218;6.640;2023-08-24T11:54:50;771.40;;;708.67;;
51949;SDS011;37974;53.218;6.640;2023-08-24T11:57:19;818.40;;;750.03;;
51949;SDS011;37974;53.218;6.640;2023-08-24T11:59:56;812.90;;;745.45;;
51949;SDS011;37974;53.218;6.640;2023-08-24T12:02:22;818.28;;;750.25;;
51949;SDS011;37974;53.218;6.640;2023-08-24T12:04:48;686.67;;;634.15;;
51949;SDS011;37974;53.218;6.640;2023-08-24T12:07:14;743.25;;;683.53;;
51949;SDS011;37974;53.218;6.640;2023-08-24T12:09:44;703.85;;;649.78;;
51949;SDS011;37974;53.218;6.640;2023-08-24T12:12:13;654.80;;;604.70;;
51949;SDS011;37974;53.218;6.640;2023-08-24T12:15:01;664.70;;;614.13;;
51949;SDS011;37974;53.218;6.640;2023-08-24T12:17:26;592.03;;;547.55;;
51949;SDS011;37974;53.218;6.640;2023-08-24T12:19:59;559.63;;;518.30;;
51949;SDS011;37974;53.218;6.640;2023-08-24T12:22:28;553.80;;;512.58;;
51949;SDS011;37974;53.218;6.640;2023-08-24T12:24:54;626.42;;;579.03;;
51949;SDS011;37974;53.218;6.640;2023-08-24T12:27:26;614.60;;;568.55;;
51949;SDS011;37974;53.218;6.640;2023-08-24T12:29:52;638.55;;;589.70;;
51949;SDS011;37974;53.218;6.640;2023-08-24T12:32:19;631.88;;;583.88;;
51949;SDS011;37974;53.218;6.640;2023-08-24T12:35:00;593.93;;;550.07;;
51949;SDS011;37974;53.218;6.640;2023-08-24T12:37:26;595.95;;;551.33;;
51949;SDS011;37974;53.218;6.640;2023-08-24T12:40:01;642.53;;;593.80;;
51949;SDS011;37974;53.218;6.640;2023-08-24T12:42:29;638.25;;;590.30;;
51949;SDS011;37974;53.218;6.640;2023-08-24T12:44:55;498.02;;;461.05;;
51949;SDS011;37974;53.218;6.640;2023-08-24T12:47:21;574.10;;;530.70;;
51949;SDS011;37974;53.218;6.640;2023-08-24T12:49:49;531.55;;;491.92;;
51949;SDS011;37974;53.218;6.640;2023-08-24T12:52:19;544.42;;;503.67;;
51949;SDS011;37974;53.218;6.640;2023-08-24T12:54:47;593.53;;;549.40;;
51949;SDS011;37974;53.218;6.640;2023-08-24T12:57:13;511.08;;;473.60;;
51949;SDS011;37974;53.218;6.640;2023-08-24T12:59:39;562.92;;;519.95;;
51949;SDS011;37974;53.218;6.640;2023-08-24T13:02:05;594.42;;;549.40;;
51949;SDS011;37974;53.218;6.640;2023-08-24T13:04:31;561.58;;;520.22;;
51949;SDS011;37974;53.218;6.640;2023-08-24T13:06:58;557.70;;;516.28;;
51949;SDS011;37974;53.218;6.640;2023-08-24T13:09:26;534.85;;;495.52;;
51949;SDS011;37974;53.218;6.640;2023-08-24T13:11:52;548.20;;;506.10;;
51949;SDS011;37974;53.218;6.640;2023-08-24T13:14:18;561.97;;;519.08;;
51949;SDS011;37974;53.218;6.640;2023-08-24T13:16:52;600.63;;;554.67;;
51949;SDS011;37974;53.218;6.640;2023-08-24T13:19:18;625.15;;;576.65;;
51949;SDS011;37974;53.218;6.640;2023-08-24T13:21:44;627.13;;;577.90;;
51949;SDS011;37974;53.218;6.640;2023-08-24T13:24:17;613.55;;;566.88;;
51949;SDS011;37974;53.218;6.640;2023-08-24T13:26:43;672.67;;;620.33;;
51949;SDS011;37974;53.218;6.640;2023-08-24T13:29:09;471.23;;;435.23;;
51949;SDS011;37974;53.218;6.640;2023-08-24T13:31:35;630.95;;;580.67;;
51949;SDS011;37974;53.218;6.640;2023-08-24T13:34:19;519.08;;;477.52;;
51949;SDS011;37974;53.218;6.640;2023-08-24T13:36:44;694.55;;;638.75;;
51949;SDS011;37974;53.218;6.640;2023-08-24T13:39:10;550.50;;;507.63;;
51949;SDS011;37974;53.218;6.640;2023-08-24T13:41:41;470.13;;;435.33;;
51949;SDS011;37974;53.218;6.640;2023-08-24T13:44:16;586.20;;;539.05;;
51949;SDS011;37974;53.218;6.640;2023-08-24T13:46:44;628.63;;;577.88;;
51949;SDS011;37974;53.218;6.640;2023-08-24T13:49:10;517.53;;;475.38;;
51949;SDS011;37974;53.218;6.640;2023-08-24T13:51:36;411.85;;;380.45;;
51949;SDS011;37974;53.218;6.640;2023-08-24T13:54:02;631.47;;;581.40;;
51949;SDS011;37974;53.218;6.640;2023-08-24T13:56:37;626.10;;;577.25;;
51949;SDS011;37974;53.218;6.640;2023-08-24T13:59:03;583.22;;;537.72;;
51949;SDS011;37974;53.218;6.640;2023-08-24T14:01:29;575.67;;;530.45;;
51949;SDS011;37974;53.218;6.640;2023-08-24T14:03:55;591.45;;;545.78;;
51949;SDS011;37974;53.218;6.640;2023-08-24T14:06:20;622.22;;;573.03;;
51949;SDS011;37974;53.218;6.640;2023-08-24T14:08:46;588.95;;;544.45;;